createdAt,value
2023-05-14T00:02:07.219Z,71.03
2023-05-14T00:07:10.215Z,70.84
2023-05-14T00:12:12.121Z,71.37
2023-05-14T00:17:13.894Z,71.24
2023-05-14T00:22:16.956Z,70.78
2023-05-14T00:27:18.558Z,70.52
2023-05-14T00:32:20.320Z,70.49
2023-05-14T00:37:23.298Z,70.59
2023-05-14T00:42:25.345Z,70.43
2023-05-14T00:47:27.069Z,70.46
2023-05-14T00:52:30.266Z,70.20
2023-05-14T00:57:31.968Z,70.75
2023-05-14T01:02:33.739Z,70.69
2023-05-14T01:07:41.034Z,71.52
2023-05-14T01:12:47.845Z,71.12
2023-05-14T01:17:52.243Z,71.35
2023-05-14T01:22:55.330Z,71.56
2023-05-14T01:28:01.318Z,71.51
2023-05-14T01:33:06.493Z,71.44
2023-05-14T01:38:11.177Z,72.18
2023-05-14T01:43:13.445Z,71.89
2023-05-14T01:48:15.814Z,72.41
2023-05-14T01:53:18.781Z,71.95
2023-05-14T01:58:20.564Z,71.87
2023-05-14T02:03:22.810Z,71.91
2023-05-14T02:08:25.861Z,72.52
2023-05-14T02:13:27.536Z,72.48
2023-05-14T02:18:29.170Z,72.58
2023-05-14T02:23:41.112Z,72.41
2023-05-14T02:28:43.955Z,72.46
2023-05-14T02:33:47.837Z,74.01
2023-05-14T02:38:50.875Z,73.71
2023-05-14T02:43:52.992Z,74.08
2023-05-14T02:48:56.131Z,75.04
2023-05-14T02:53:59.116Z,74.04
2023-05-14T02:59:00.929Z,74.25
2023-05-14T03:04:03.149Z,74.07
2023-05-14T03:09:06.265Z,74.13
2023-05-14T03:14:07.915Z,74.07
2023-05-14T03:19:09.643Z,74.02
2023-05-14T03:24:12.960Z,74.04
2023-05-14T03:29:14.554Z,74.43
2023-05-14T03:34:16.157Z,74.79
2023-05-14T03:39:19.209Z,74.84
2023-05-14T03:44:20.826Z,75.02
2023-05-14T03:49:22.552Z,74.91
2023-05-14T03:54:26.707Z,75.01
2023-05-14T03:59:28.452Z,75.59
2023-05-14T04:04:30.173Z,75.83
2023-05-14T04:09:33.298Z,75.42
2023-05-14T04:14:34.979Z,74.92
2023-05-14T04:19:36.625Z,75.27
2023-05-14T04:24:39.551Z,75.79
2023-05-14T04:29:41.149Z,75.36
2023-05-14T04:34:42.793Z,74.92
2023-05-14T04:39:45.770Z,74.28
2023-05-14T04:44:47.638Z,74.54
2023-05-14T04:49:49.329Z,74.27
2023-05-14T04:54:52.418Z,75.05
2023-05-14T04:59:54.105Z,74.15
2023-05-14T05:04:55.762Z,72.23
2023-05-14T05:09:58.708Z,70.30
2023-05-14T05:15:00.384Z,65.80
2023-05-14T05:20:01.976Z,66.46
2023-05-14T05:25:05.790Z,67.07
2023-05-14T05:30:08.474Z,67.94
2023-05-14T05:35:10.142Z,68.56
2023-05-14T05:40:13.319Z,69.12
2023-05-14T05:45:14.937Z,69.42
2023-05-14T05:50:17.916Z,69.80
2023-05-14T05:55:22.115Z,68.50
2023-05-14T06:00:24.108Z,69.07
2023-05-14T06:05:27.575Z,68.75
2023-05-14T06:10:30.695Z,64.13
2023-05-14T06:15:32.383Z,59.93
2023-05-14T06:20:34.096Z,58.26
2023-05-14T06:25:37.023Z,55.83
2023-05-14T06:30:38.698Z,54.77
2023-05-14T06:35:40.360Z,52.42
2023-05-14T06:40:43.375Z,51.05
2023-05-14T06:45:48.753Z,47.60
2023-05-14T06:50:50.430Z,48.16
2023-05-14T06:55:53.419Z,45.96
2023-05-14T07:00:55.082Z,41.97
2023-05-14T07:05:56.726Z,43.88
2023-05-14T07:10:59.752Z,42.65
2023-05-14T07:16:01.446Z,46.03
2023-05-14T07:21:03.192Z,50.09
2023-05-14T07:26:07.150Z,48.08
2023-05-14T07:31:09.377Z,47.33
2023-05-14T07:36:11.106Z,45.18
2023-05-14T07:41:14.106Z,43.72
2023-05-14T07:46:15.942Z,40.97
2023-05-14T07:51:17.664Z,41.92
2023-05-14T07:56:20.710Z,41.98
2023-05-14T08:01:22.864Z,40.76
2023-05-14T08:06:24.765Z,40.51
2023-05-14T08:11:27.990Z,39.44
2023-05-14T08:16:29.736Z,38.85
2023-05-14T08:21:31.381Z,37.44
2023-05-14T08:26:34.404Z,38.49
2023-05-14T08:31:36.108Z,37.50
2023-05-14T08:36:38.466Z,38.89
2023-05-14T08:41:41.540Z,38.68
2023-05-14T08:46:43.188Z,38.84
2023-05-14T08:51:45.086Z,38.69
2023-05-14T08:56:49.874Z,38.35
2023-05-14T09:01:54.267Z,39.47
2023-05-14T09:06:56.043Z,39.74
2023-05-14T09:11:59.011Z,42.32
2023-05-14T09:17:00.578Z,46.33
2023-05-14T09:22:02.363Z,45.80
2023-05-14T09:27:06.257Z,45.68
2023-05-14T09:32:07.965Z,47.70
2023-05-14T09:37:09.880Z,47.93
2023-05-14T09:42:12.940Z,47.78
2023-05-14T09:47:15.070Z,47.63
2023-05-14T09:52:18.534Z,48.24
2023-05-14T09:57:21.682Z,47.91
2023-05-14T10:02:25.347Z,49.99
2023-05-14T10:07:29.857Z,48.94
2023-05-14T10:12:34.633Z,50.14
2023-05-14T10:17:37.893Z,49.24
2023-05-14T10:22:39.580Z,50.57
2023-05-14T10:27:42.792Z,49.60
2023-05-14T10:32:44.594Z,49.41
2023-05-14T10:37:46.636Z,47.63
2023-05-14T10:42:49.604Z,48.40
2023-05-14T10:47:51.301Z,47.42
2023-05-14T10:52:53.018Z,46.97
2023-05-14T10:57:58.933Z,46.22
2023-05-14T11:03:00.602Z,46.34
2023-05-14T11:08:04.454Z,44.62
2023-05-14T11:13:07.449Z,44.02
2023-05-14T11:18:09.273Z,43.04
2023-05-14T11:23:11.321Z,43.52
2023-05-14T11:28:15.892Z,44.29
2023-05-14T11:33:17.912Z,43.06
2023-05-14T11:38:20.583Z,43.61
2023-05-14T11:43:24.208Z,44.64
2023-05-14T11:48:26.303Z,43.65
2023-05-14T11:53:30.526Z,43.31
2023-05-14T11:58:33.697Z,44.70
2023-05-14T12:03:35.588Z,43.62
2023-05-14T12:08:37.604Z,42.98
2023-05-14T12:13:40.647Z,44.48
2023-05-14T12:18:42.805Z,44.42
2023-05-14T12:23:44.512Z,44.58
2023-05-14T12:28:47.656Z,44.71
2023-05-14T12:33:49.292Z,43.96
2023-05-14T12:38:53.617Z,43.59
2023-05-14T12:43:56.802Z,43.37
2023-05-14T12:48:58.713Z,42.38
2023-05-14T12:54:00.434Z,41.28
2023-05-14T12:59:03.591Z,39.77
2023-05-14T13:04:05.562Z,41.78
2023-05-14T13:09:07.281Z,41.67
2023-05-14T13:14:10.194Z,41.34
2023-05-14T13:19:12.120Z,40.11
2023-05-14T13:24:14.120Z,40.17
2023-05-14T13:29:17.437Z,39.38
2023-05-14T13:34:19.199Z,39.77
2023-05-14T13:39:20.816Z,39.63
2023-05-14T13:44:23.835Z,40.52
2023-05-14T13:49:25.631Z,41.83
2023-05-14T13:54:27.329Z,42.62
2023-05-14T13:59:30.376Z,41.66
2023-05-14T14:04:32.040Z,41.89
2023-05-14T14:09:33.743Z,41.61
2023-05-14T14:14:36.795Z,40.60
2023-05-14T14:19:38.468Z,41.05
2023-05-14T14:24:40.134Z,41.28
2023-05-14T14:29:43.104Z,41.15
2023-05-14T14:34:44.867Z,41.14
2023-05-14T14:39:46.644Z,41.11
2023-05-14T14:44:49.765Z,41.46
2023-05-14T14:49:51.505Z,40.24
2023-05-14T14:54:53.742Z,41.47
2023-05-14T14:59:56.767Z,40.29
2023-05-14T15:04:58.417Z,39.80
2023-05-14T15:10:00.198Z,40.67
2023-05-14T15:15:03.654Z,38.99
2023-05-14T15:20:06.687Z,40.46
2023-05-14T15:25:08.782Z,39.32
2023-05-14T15:30:13.367Z,40.39
2023-05-14T15:35:15.170Z,39.34
2023-05-14T15:40:18.803Z,38.83
2023-05-14T15:45:22.144Z,39.44
2023-05-14T15:50:24.012Z,38.87
2023-05-14T15:55:25.897Z,38.92
2023-05-14T16:00:29.056Z,38.94
2023-05-14T16:05:30.984Z,39.05
2023-05-14T16:10:32.914Z,38.55
2023-05-14T16:15:35.978Z,39.24
2023-05-14T16:20:37.699Z,42.83
2023-05-14T16:25:39.371Z,44.03
2023-05-14T16:30:42.376Z,47.06
2023-05-14T16:35:44.427Z,47.71
2023-05-14T16:40:48.649Z,48.72
2023-05-14T16:45:54.161Z,47.21
2023-05-14T16:50:55.996Z,48.02
2023-05-14T16:56:01.138Z,48.79
2023-05-14T17:01:04.951Z,49.59
2023-05-14T17:06:11.834Z,51.38
2023-05-14T17:11:13.655Z,50.33
2023-05-14T17:16:16.898Z,50.39
2023-05-14T17:21:18.747Z,52.18
2023-05-14T17:26:23.544Z,52.07
2023-05-14T17:31:29.240Z,53.02
2023-05-14T17:36:33.365Z,53.48
2023-05-14T17:41:35.124Z,52.79
2023-05-14T17:46:40.317Z,52.73
2023-05-14T17:51:42.225Z,53.56
2023-05-14T17:56:43.908Z,52.38
2023-05-14T18:01:46.986Z,52.43
2023-05-14T18:06:48.715Z,52.96
2023-05-14T18:11:50.493Z,53.82
2023-05-14T18:16:53.759Z,57.59
2023-05-14T18:21:55.668Z,56.07
2023-05-14T18:26:57.687Z,58.74
2023-05-14T18:32:00.993Z,59.70
2023-05-14T18:37:02.947Z,59.01
2023-05-14T18:42:05.042Z,58.09
2023-05-14T18:47:08.771Z,58.81
2023-05-14T18:52:10.650Z,57.52
2023-05-14T18:57:12.531Z,56.73
2023-05-14T19:02:15.722Z,58.51
2023-05-14T19:07:18.554Z,58.46
2023-05-14T19:12:20.613Z,58.05
2023-05-14T19:17:24.042Z,58.56
2023-05-14T19:22:27.216Z,59.10
2023-05-14T19:27:29.299Z,60.39
2023-05-14T19:32:32.627Z,59.84
2023-05-14T19:37:34.718Z,59.75
2023-05-14T19:42:36.804Z,59.93
2023-05-14T19:47:40.087Z,60.17
2023-05-14T19:52:42.425Z,60.84
2023-05-14T19:57:44.349Z,61.12
2023-05-14T20:02:48.173Z,61.48
2023-05-14T20:07:50.386Z,62.30
2023-05-14T20:12:52.410Z,61.04
2023-05-14T20:17:56.309Z,60.66
2023-05-14T20:22:58.224Z,60.06
2023-05-14T20:28:00.463Z,60.21
2023-05-14T20:33:03.929Z,60.05
2023-05-14T20:38:05.907Z,59.93
2023-05-14T20:43:07.813Z,59.42
2023-05-14T20:48:10.988Z,59.50
2023-05-14T20:53:14.003Z,59.29
2023-05-14T20:58:15.775Z,59.47
2023-05-14T21:03:18.985Z,59.57
2023-05-14T21:08:20.708Z,59.82
2023-05-14T21:13:22.328Z,59.89
2023-05-14T21:18:25.378Z,60.01
2023-05-14T21:23:27.079Z,60.34
2023-05-14T21:28:28.723Z,60.50
2023-05-14T21:33:31.689Z,60.80
2023-05-14T21:38:33.725Z,61.08
2023-05-14T21:43:38.510Z,61.55
2023-05-14T21:48:41.602Z,62.04
2023-05-14T21:53:43.418Z,63.42
2023-05-14T21:58:45.016Z,63.30
2023-05-14T22:03:48.060Z,63.67
2023-05-14T22:08:49.682Z,64.42
2023-05-14T22:13:51.330Z,65.30
2023-05-14T22:18:54.393Z,65.46
2023-05-14T22:23:56.024Z,66.27
2023-05-14T22:28:57.691Z,67.47
2023-05-14T22:34:00.660Z,67.38
2023-05-14T22:39:02.260Z,66.79
2023-05-14T22:44:03.926Z,66.73
2023-05-14T22:49:06.862Z,67.28
2023-05-14T22:54:08.722Z,67.85
2023-05-14T22:59:10.339Z,67.67
2023-05-14T23:04:13.385Z,67.65
2023-05-14T23:09:14.990Z,67.72
2023-05-14T23:14:16.617Z,67.44
2023-05-14T23:19:20.931Z,67.96
2023-05-14T23:24:22.568Z,67.68
2023-05-14T23:29:24.208Z,67.89
2023-05-14T23:34:27.145Z,67.73
2023-05-14T23:39:28.782Z,67.69
2023-05-14T23:44:30.390Z,67.76
2023-05-14T23:49:33.357Z,67.71
2023-05-14T23:54:34.996Z,67.37
2023-05-14T23:59:36.778Z,67.72
